createdAt,value
2024-05-09T00:00:22.154Z,8.05
2024-05-09T00:01:29.783Z,10.10
2024-05-09T00:02:32.933Z,11.95
2024-05-09T00:03:36.032Z,10.00
2024-05-09T00:04:39.766Z,8.35
2024-05-09T00:05:44.074Z,8.93
2024-05-09T00:06:50.643Z,9.07
2024-05-09T00:07:53.552Z,9.38
2024-05-09T00:08:56.524Z,9.95
2024-05-09T00:09:59.455Z,8.57
2024-05-09T00:11:03.074Z,8.73
2024-05-09T00:12:06.466Z,17.25
2024-05-09T00:13:11.260Z,14.82
2024-05-09T00:14:14.447Z,11.07
2024-05-09T00:15:17.425Z,9.25
2024-05-09T00:16:20.573Z,8.57
2024-05-09T00:17:24.724Z,8.65
2024-05-09T00:18:27.811Z,8.45
2024-05-09T00:19:30.807Z,8.75
2024-05-09T00:20:38.923Z,9.80
2024-05-09T00:21:44.654Z,13.90
2024-05-09T00:22:48.381Z,9.68
2024-05-09T00:23:51.940Z,9.27
2024-05-09T00:24:57.032Z,9.52
2024-05-09T00:26:00.098Z,8.93
2024-05-09T00:27:03.076Z,8.88
2024-05-09T00:28:06.711Z,9.18
2024-05-09T00:29:09.677Z,9.77
2024-05-09T00:30:17.838Z,8.95
2024-05-09T00:31:27.630Z,8.75
2024-05-09T00:32:31.350Z,8.82
2024-05-09T00:33:35.204Z,9.57
2024-05-09T00:34:38.203Z,10.32
2024-05-09T00:35:41.688Z,8.75
2024-05-09T00:36:44.713Z,9.38
2024-05-09T00:37:47.822Z,8.45
2024-05-09T00:38:54.289Z,9.30
2024-05-09T00:39:57.280Z,9.43
2024-05-09T00:41:02.866Z,11.60
2024-05-09T00:42:05.854Z,10.95
2024-05-09T00:43:08.980Z,9.82
2024-05-09T00:44:11.964Z,10.95
2024-05-09T00:45:15.508Z,9.02
2024-05-09T00:46:18.933Z,10.32
2024-05-09T00:47:22.365Z,9.25
2024-05-09T00:48:27.272Z,9.80
2024-05-09T00:49:30.501Z,9.55
2024-05-09T00:50:37.127Z,9.45
2024-05-09T00:51:42.538Z,9.45
2024-05-09T00:52:47.655Z,10.45
2024-05-09T00:53:50.626Z,9.70
2024-05-09T00:54:56.336Z,8.50
2024-05-09T00:55:59.815Z,9.95
2024-05-09T00:57:04.969Z,8.77
2024-05-09T00:58:11.094Z,9.45
2024-05-09T00:59:14.147Z,9.77
2024-05-09T01:00:26.506Z,8.95
2024-05-09T01:01:35.205Z,9.95
2024-05-09T01:02:40.426Z,9.32
2024-05-09T01:03:44.311Z,9.18
2024-05-09T01:04:48.896Z,9.77
2024-05-09T01:05:52.452Z,10.00
2024-05-09T01:06:55.428Z,9.35
2024-05-09T01:07:58.504Z,9.52
2024-05-09T01:09:01.423Z,9.07
2024-05-09T01:10:07.152Z,10.15
2024-05-09T01:11:16.371Z,10.10
2024-05-09T01:12:19.453Z,10.95
2024-05-09T01:13:22.449Z,9.57
2024-05-09T01:14:25.513Z,9.25
2024-05-09T01:15:28.572Z,9.43
2024-05-09T01:16:32.136Z,8.35
2024-05-09T01:17:35.257Z,8.95
2024-05-09T01:18:38.423Z,8.75
2024-05-09T01:19:41.842Z,8.40
2024-05-09T01:20:45.637Z,9.18
2024-05-09T01:21:48.728Z,9.13
2024-05-09T01:22:54.323Z,8.02
2024-05-09T01:23:57.304Z,8.02
2024-05-09T01:25:00.262Z,8.30
2024-05-09T01:26:03.257Z,8.95
2024-05-09T01:27:06.181Z,9.23
2024-05-09T01:28:09.320Z,8.38
2024-05-09T01:29:12.376Z,8.30
2024-05-09T01:30:20.975Z,8.90
2024-05-09T01:31:27.455Z,8.43
2024-05-09T01:32:30.538Z,8.80
2024-05-09T01:33:33.798Z,9.25
2024-05-09T01:34:36.814Z,9.80
2024-05-09T01:35:41.786Z,9.95
2024-05-09T01:36:45.749Z,8.85
2024-05-09T01:37:48.758Z,8.80
2024-05-09T01:38:51.714Z,9.13
2024-05-09T01:39:56.607Z,8.25
2024-05-09T01:40:59.568Z,8.52
2024-05-09T01:42:02.498Z,8.65
2024-05-09T01:43:05.666Z,8.45
2024-05-09T01:44:10.098Z,7.75
2024-05-09T01:45:13.145Z,8.75
2024-05-09T01:46:16.899Z,9.05
2024-05-09T01:47:19.905Z,8.90
2024-05-09T01:48:22.994Z,8.43
2024-05-09T01:49:26.434Z,8.50
2024-05-09T01:50:37.834Z,7.97
2024-05-09T01:51:45.418Z,8.07
2024-05-09T01:52:48.415Z,9.02
2024-05-09T01:53:51.324Z,8.82
2024-05-09T01:54:54.455Z,9.70
2024-05-09T01:56:00.302Z,7.80
2024-05-09T01:57:03.211Z,9.18
2024-05-09T01:58:06.358Z,8.93
2024-05-09T01:59:10.488Z,9.38
2024-05-09T02:02:12.572Z,7.95
2024-05-09T02:03:17.517Z,8.55
2024-05-09T02:04:21.289Z,9.88
2024-05-09T02:05:24.505Z,9.40
2024-05-09T02:06:27.479Z,9.93
2024-05-09T02:07:31.143Z,10.05
2024-05-09T02:08:34.177Z,11.60
2024-05-09T02:09:37.193Z,12.25
2024-05-09T02:10:40.151Z,10.52
2024-05-09T02:11:48.439Z,9.05
2024-05-09T02:12:51.517Z,8.52
2024-05-09T02:13:54.581Z,9.77
2024-05-09T02:15:01.280Z,10.32
2024-05-09T02:16:04.449Z,11.50
2024-05-09T02:17:07.510Z,10.90
2024-05-09T02:18:11.107Z,10.10
2024-05-09T02:19:14.604Z,9.80
2024-05-09T02:20:27.103Z,11.07
2024-05-09T02:21:36.730Z,9.55
2024-05-09T02:22:39.784Z,11.50
2024-05-09T02:23:42.926Z,10.75
2024-05-09T02:24:45.971Z,10.50
2024-05-09T02:25:49.835Z,10.40
2024-05-09T02:26:52.802Z,10.35
2024-05-09T02:27:55.733Z,10.48
2024-05-09T02:28:58.709Z,10.23
2024-05-09T02:30:02.171Z,9.95
2024-05-09T02:31:05.232Z,10.00
2024-05-09T02:32:08.336Z,9.50
2024-05-09T02:33:13.225Z,9.95
2024-05-09T02:34:17.326Z,9.50
2024-05-09T02:35:20.497Z,9.45
2024-05-09T02:36:25.082Z,9.05
2024-05-09T02:37:29.370Z,9.07
2024-05-09T02:38:33.487Z,8.95
2024-05-09T02:39:36.438Z,9.02
2024-05-09T02:40:40.281Z,8.30
2024-05-09T02:41:43.712Z,8.45
2024-05-09T02:42:46.667Z,8.60
2024-05-09T02:43:50.892Z,9.02
2024-05-09T02:44:54.846Z,8.35
2024-05-09T02:45:57.740Z,9.77
2024-05-09T02:47:00.671Z,9.75
2024-05-09T02:48:07.226Z,9.23
2024-05-09T02:49:10.389Z,9.25
2024-05-09T02:50:16.236Z,9.10
2024-05-09T02:51:22.478Z,8.48
2024-05-09T02:52:25.410Z,8.23
2024-05-09T02:53:28.835Z,9.45
2024-05-09T02:54:31.786Z,9.38
2024-05-09T02:55:35.075Z,9.23
2024-05-09T02:56:38.127Z,10.30
2024-05-09T02:57:41.211Z,9.82
2024-05-09T02:58:44.445Z,8.63
2024-05-09T02:59:48.266Z,9.38
2024-05-09T03:00:51.466Z,9.00
2024-05-09T03:01:54.738Z,9.55
2024-05-09T03:02:58.150Z,8.82
2024-05-09T03:04:04.684Z,8.23
2024-05-09T03:05:07.848Z,9.65
2024-05-09T03:06:10.736Z,8.50
2024-05-09T03:07:13.603Z,7.75
2024-05-09T03:11:40.762Z,8.23
2024-05-09T03:12:43.954Z,7.97
2024-05-09T03:13:46.948Z,8.95
2024-05-09T03:14:51.190Z,9.15
2024-05-09T03:15:54.111Z,9.13
2024-05-09T03:16:57.065Z,8.88
2024-05-09T03:18:01.186Z,10.48
2024-05-09T03:19:05.899Z,9.77
2024-05-09T03:20:17.395Z,10.30
2024-05-09T03:21:26.661Z,8.88
2024-05-09T03:22:29.581Z,8.75
2024-05-09T03:23:32.656Z,8.45
2024-05-09T03:24:35.646Z,8.48
2024-05-09T03:25:39.257Z,9.13
2024-05-09T03:26:42.262Z,9.60
2024-05-09T03:27:45.214Z,9.70
2024-05-09T03:28:48.270Z,8.45
2024-05-09T03:29:51.768Z,9.88
2024-05-09T03:30:54.716Z,9.60
2024-05-09T03:31:57.716Z,9.15
2024-05-09T03:33:00.919Z,10.00
2024-05-09T03:34:04.577Z,10.38
2024-05-09T03:35:08.227Z,10.60
2024-05-09T03:36:11.529Z,10.68
2024-05-09T03:37:14.683Z,10.00
2024-05-09T03:38:17.924Z,10.10
2024-05-09T03:39:21.230Z,9.35
2024-05-09T03:40:28.912Z,9.48
2024-05-09T03:41:33.626Z,10.07
2024-05-09T03:42:40.843Z,10.32
2024-05-09T03:43:44.593Z,9.20
2024-05-09T03:44:47.548Z,9.50
2024-05-09T03:45:53.209Z,9.20
2024-05-09T03:46:56.306Z,9.73
2024-05-09T03:47:59.514Z,10.30
2024-05-09T03:49:02.703Z,9.38
2024-05-09T03:50:11.972Z,9.15
2024-05-09T03:51:17.916Z,10.45
2024-05-09T03:52:20.975Z,11.15
2024-05-09T03:53:25.744Z,10.80
2024-05-09T03:54:29.317Z,10.43
2024-05-09T03:55:32.788Z,9.90
2024-05-09T03:56:35.866Z,8.50
2024-05-09T03:57:39.800Z,9.85
2024-05-09T03:58:42.708Z,9.27
2024-05-09T03:59:45.668Z,8.43
2024-05-09T04:00:48.629Z,8.50
2024-05-09T04:01:51.728Z,8.65
2024-05-09T04:02:55.256Z,9.05
2024-05-09T04:03:58.358Z,9.10
2024-05-09T04:05:01.477Z,8.70
2024-05-09T04:06:05.848Z,8.32
2024-05-09T04:07:08.999Z,8.48
2024-05-09T04:08:12.197Z,7.75
2024-05-09T04:09:15.187Z,8.02
2024-05-09T04:10:27.654Z,7.68
2024-05-09T04:11:35.839Z,7.57
2024-05-09T04:12:39.037Z,7.90
2024-05-09T04:13:43.071Z,8.43
2024-05-09T04:14:46.083Z,8.02
2024-05-09T04:15:49.157Z,7.47
2024-05-09T04:16:52.235Z,7.35
2024-05-09T04:17:55.494Z,8.45
2024-05-09T04:18:58.803Z,7.20
2024-05-09T04:20:01.855Z,8.20
2024-05-09T04:21:05.478Z,7.57
2024-05-09T04:22:08.612Z,7.25
2024-05-09T04:23:14.684Z,7.85
2024-05-09T04:24:17.957Z,7.80
2024-05-09T04:25:20.874Z,7.90
2024-05-09T04:26:24.508Z,8.02
2024-05-09T04:27:27.556Z,7.90
2024-05-09T04:28:30.904Z,7.82
2024-05-09T04:29:37.483Z,7.70
2024-05-09T04:30:41.715Z,7.63
2024-05-09T04:31:45.366Z,6.70
2024-05-09T04:32:48.422Z,7.07
2024-05-09T04:33:51.708Z,7.15
2024-05-09T04:34:54.751Z,6.72
2024-05-09T04:35:57.725Z,7.07
2024-05-09T04:37:00.734Z,7.38
2024-05-09T04:38:03.760Z,7.07
2024-05-09T04:39:06.742Z,7.13
2024-05-09T04:40:20.491Z,7.50
2024-05-09T04:41:27.342Z,6.72
2024-05-09T04:42:30.307Z,6.93
2024-05-09T04:43:35.336Z,6.45
2024-05-09T04:44:38.299Z,7.10
2024-05-09T04:45:41.572Z,6.63
2024-05-09T04:46:45.037Z,6.72
2024-05-09T04:47:48.458Z,6.10
2024-05-09T04:48:51.681Z,6.85
2024-05-09T04:49:54.747Z,7.40
2024-05-09T04:50:57.687Z,6.32
2024-05-09T04:52:00.776Z,6.75
2024-05-09T04:53:03.914Z,7.13
2024-05-09T04:54:10.640Z,7.22
2024-05-09T04:55:13.754Z,7.00
2024-05-09T04:56:16.738Z,7.40
2024-05-09T04:57:19.734Z,7.15
2024-05-09T04:58:22.666Z,7.63
2024-05-09T04:59:25.834Z,7.32
2024-05-09T05:00:35.798Z,7.47
2024-05-09T05:01:42.021Z,6.40
2024-05-09T05:02:45.040Z,7.60
2024-05-09T05:03:48.205Z,7.38
2024-05-09T05:04:51.414Z,6.88
2024-05-09T05:05:56.232Z,7.32
2024-05-09T05:07:02.102Z,7.60
2024-05-09T05:08:06.308Z,6.63
2024-05-09T05:09:09.307Z,7.40
2024-05-09T05:10:17.907Z,6.93
2024-05-09T05:11:30.923Z,7.32
2024-05-09T05:12:52.896Z,6.90
2024-05-09T05:13:55.895Z,7.30
2024-05-09T05:14:58.880Z,6.75
2024-05-09T05:16:01.875Z,6.75
2024-05-09T05:17:04.957Z,6.75
2024-05-09T05:18:08.337Z,7.13
2024-05-09T05:19:13.504Z,5.88
2024-05-09T05:20:27.153Z,6.50
2024-05-09T05:21:35.515Z,7.43
2024-05-09T05:22:38.525Z,6.68
2024-05-09T05:23:41.740Z,7.28
2024-05-09T05:24:44.805Z,6.50
2024-05-09T05:25:49.313Z,7.13
2024-05-09T05:26:52.368Z,7.05
2024-05-09T05:27:55.474Z,7.00
2024-05-09T05:28:58.643Z,7.55
2024-05-09T05:30:01.579Z,6.93
2024-05-09T05:31:04.684Z,7.85
2024-05-09T05:32:08.153Z,6.70
2024-05-09T05:33:13.622Z,6.35
2024-05-09T05:34:16.635Z,7.10
2024-05-09T05:35:21.687Z,6.93
2024-05-09T05:36:24.662Z,6.85
2024-05-09T05:37:27.550Z,6.70
2024-05-09T05:38:30.509Z,6.65
2024-05-09T05:39:33.467Z,6.80
2024-05-09T05:40:38.557Z,7.50
2024-05-09T05:41:42.797Z,7.70
2024-05-09T05:42:48.298Z,8.85
2024-05-09T05:43:51.196Z,7.65
2024-05-09T05:44:54.319Z,6.90
2024-05-09T05:45:57.261Z,6.15
2024-05-09T05:47:00.312Z,6.78
2024-05-09T05:48:05.889Z,6.47
2024-05-09T05:49:09.765Z,7.38
2024-05-09T05:50:23.678Z,6.03
2024-05-09T05:51:30.677Z,6.72
2024-05-09T05:52:33.550Z,6.43
2024-05-09T05:53:36.755Z,7.32
2024-05-09T05:54:39.752Z,7.32
2024-05-09T05:55:42.826Z,7.93
2024-05-09T05:56:46.343Z,6.90
2024-05-09T05:57:49.347Z,7.68
2024-05-09T05:58:52.272Z,6.65
2024-05-09T05:59:55.408Z,7.20
2024-05-09T06:00:58.330Z,7.50
2024-05-09T06:02:01.284Z,7.28
2024-05-09T06:03:04.874Z,6.78
2024-05-09T06:04:08.249Z,7.78
2024-05-09T06:05:11.533Z,6.38
2024-05-09T06:06:14.593Z,6.32
2024-05-09T06:07:17.834Z,7.15
2024-05-09T06:08:26.198Z,7.78
2024-05-09T06:09:30.900Z,7.38
2024-05-09T06:10:39.687Z,7.07
2024-05-09T06:11:44.104Z,7.40
2024-05-09T06:12:47.261Z,7.38
2024-05-09T06:13:50.224Z,7.40
2024-05-09T06:14:53.139Z,7.32
2024-05-09T06:15:56.041Z,7.10
2024-05-09T06:16:59.209Z,7.13
2024-05-09T06:18:02.540Z,7.75
2024-05-09T06:19:05.742Z,7.63
2024-05-09T06:20:16.643Z,7.30
2024-05-09T06:21:26.413Z,7.00
2024-05-09T06:22:29.323Z,7.28
2024-05-09T06:23:32.379Z,7.65
2024-05-09T06:24:35.515Z,7.47
2024-05-09T06:25:38.958Z,7.63
2024-05-09T06:26:42.856Z,7.43
2024-05-09T06:27:45.846Z,7.32
2024-05-09T06:28:48.811Z,7.25
2024-05-09T06:29:51.842Z,7.40
2024-05-09T06:30:54.766Z,6.93
2024-05-09T06:32:00.121Z,7.60
2024-05-09T06:33:04.042Z,7.07
2024-05-09T06:34:07.344Z,6.53
2024-05-09T06:35:10.377Z,6.93
2024-05-09T06:36:13.706Z,6.68
2024-05-09T06:37:16.644Z,5.93
2024-05-09T06:38:19.786Z,6.30
2024-05-09T06:39:24.072Z,6.05
2024-05-09T06:40:36.086Z,6.40
2024-05-09T06:41:41.718Z,6.60
2024-05-09T06:42:44.654Z,6.95
2024-05-09T06:43:47.596Z,6.95
2024-05-09T06:44:50.567Z,7.07
2024-05-09T06:45:54.656Z,6.90
2024-05-09T06:46:59.860Z,6.55
2024-05-09T06:48:03.959Z,7.07
2024-05-09T06:49:08.351Z,6.75
2024-05-09T06:50:19.723Z,6.65
2024-05-09T06:51:28.918Z,6.05
2024-05-09T06:52:31.782Z,5.95
2024-05-09T06:53:40.000Z,5.43
2024-05-09T06:54:43.774Z,5.68
2024-05-09T06:55:46.934Z,5.68
2024-05-09T06:56:50.032Z,5.82
2024-05-09T06:57:52.932Z,5.32
2024-05-09T06:59:00.389Z,5.10
2024-05-09T07:00:03.871Z,5.40
2024-05-09T07:01:07.154Z,5.10
2024-05-09T07:02:10.374Z,5.57
2024-05-09T07:03:18.132Z,5.80
2024-05-09T07:04:22.689Z,6.00
2024-05-09T07:05:26.094Z,5.72
2024-05-09T07:06:32.069Z,5.80
2024-05-09T07:07:35.050Z,5.60
2024-05-09T07:08:38.041Z,5.70
2024-05-09T07:09:41.490Z,5.60
2024-05-09T07:10:44.756Z,6.20
2024-05-09T07:11:47.966Z,5.03
2024-05-09T07:12:51.271Z,6.10
2024-05-09T07:13:54.603Z,7.60
2024-05-09T07:14:57.890Z,6.13
2024-05-09T07:16:00.990Z,6.30
2024-05-09T07:17:04.366Z,5.90
2024-05-09T07:18:21.454Z,6.00
2024-05-09T07:19:24.767Z,6.50
2024-05-09T07:20:34.457Z,6.15
2024-05-09T07:21:38.128Z,5.50
2024-05-09T07:22:41.115Z,6.00
2024-05-09T07:23:46.838Z,6.50
2024-05-09T07:24:50.252Z,6.50
2024-05-09T07:25:53.337Z,6.85
2024-05-09T07:26:59.927Z,6.32
2024-05-09T07:28:02.814Z,6.63
2024-05-09T07:29:05.853Z,6.30
2024-05-09T07:30:16.660Z,6.88
2024-05-09T07:31:28.161Z,6.95
2024-05-09T07:32:31.775Z,6.15
2024-05-09T07:33:34.861Z,7.05
2024-05-09T07:34:37.859Z,6.63
2024-05-09T07:35:40.840Z,6.78
2024-05-09T07:36:43.941Z,6.55
2024-05-09T07:37:46.917Z,6.80
2024-05-09T07:38:50.177Z,6.65
2024-05-09T07:39:53.193Z,5.85
2024-05-09T07:40:56.109Z,5.95
2024-05-09T07:41:59.163Z,6.40
2024-05-09T07:43:13.885Z,6.70
2024-05-09T07:44:16.911Z,6.95
2024-05-09T07:45:39.891Z,7.60
2024-05-09T07:49:13.638Z,6.60
2024-05-09T07:52:32.579Z,6.05
2024-05-09T07:53:36.553Z,6.35
2024-05-09T07:54:29.356Z,6.18
2024-05-09T07:55:32.808Z,6.15
2024-05-09T07:56:36.193Z,5.78
2024-05-09T07:57:39.371Z,5.70
2024-05-09T07:58:46.125Z,5.63
2024-05-09T07:59:49.056Z,5.68
2024-05-09T08:00:52.080Z,5.90
2024-05-09T08:01:55.269Z,5.10
2024-05-09T08:02:58.414Z,5.15
2024-05-09T08:04:01.756Z,5.32
2024-05-09T08:05:05.110Z,4.97
2024-05-09T08:06:08.144Z,5.22
2024-05-09T08:07:13.591Z,4.78
2024-05-09T08:08:16.903Z,5.25
2024-05-09T08:09:21.376Z,4.70
2024-05-09T08:10:28.747Z,5.43
2024-05-09T08:11:33.657Z,5.47
2024-05-09T08:12:36.690Z,4.95
2024-05-09T08:13:39.606Z,4.72
2024-05-09T08:14:42.552Z,4.78
2024-05-09T08:15:45.528Z,4.85
2024-05-09T08:16:48.577Z,4.55
2024-05-09T08:17:51.653Z,5.32
2024-05-09T08:18:54.914Z,4.68
2024-05-09T08:19:57.879Z,4.63
2024-05-09T08:21:00.896Z,4.22
2024-05-09T08:22:07.048Z,4.35
2024-05-09T08:23:11.661Z,4.32
2024-05-09T08:24:14.703Z,4.40
2024-05-09T08:25:17.853Z,4.00
2024-05-09T08:26:20.943Z,4.28
2024-05-09T08:27:26.348Z,4.20
2024-05-09T08:28:29.378Z,4.68
2024-05-09T08:29:32.763Z,4.38
2024-05-09T08:30:38.113Z,3.70
2024-05-09T08:31:41.719Z,4.35
2024-05-09T08:32:47.897Z,4.13
2024-05-09T08:33:51.778Z,3.72
2024-05-09T08:34:54.950Z,4.20
2024-05-09T08:35:59.399Z,4.07
2024-05-09T08:37:10.094Z,4.03
2024-05-09T08:38:18.476Z,4.10
2024-05-09T08:39:21.361Z,3.95
2024-05-09T08:40:31.057Z,4.00
2024-05-09T08:41:42.697Z,3.97
2024-05-09T08:42:49.924Z,3.53
2024-05-09T08:43:52.937Z,3.83
2024-05-09T08:44:55.830Z,3.30
2024-05-09T08:45:59.850Z,3.38
2024-05-09T08:47:08.495Z,3.40
2024-05-09T08:48:15.135Z,3.58
2024-05-09T08:49:19.336Z,3.97
2024-05-09T08:50:31.935Z,3.70
2024-05-09T08:51:41.288Z,3.42
2024-05-09T08:52:44.734Z,2.90
2024-05-09T08:53:47.704Z,2.90
2024-05-09T08:54:50.767Z,3.08
2024-05-09T08:55:55.862Z,2.70
2024-05-09T08:56:59.727Z,2.90
2024-05-09T08:58:04.573Z,2.58
2024-05-09T08:59:09.888Z,2.67
2024-05-09T09:00:18.142Z,3.00
2024-05-09T09:01:38.133Z,2.97
2024-05-09T09:02:44.710Z,3.00
2024-05-09T09:03:49.091Z,3.35
2024-05-09T09:05:00.126Z,2.75
2024-05-09T09:06:07.763Z,6.43
2024-05-09T09:07:11.440Z,2.90
2024-05-09T09:08:16.236Z,2.60
2024-05-09T09:09:19.273Z,2.55
2024-05-09T09:10:29.792Z,2.90
2024-05-09T09:11:35.194Z,2.42
2024-05-09T09:12:38.228Z,2.90
2024-05-09T09:13:43.753Z,2.30
2024-05-09T09:14:46.827Z,2.47
2024-05-09T09:15:50.847Z,2.45
2024-05-09T09:16:55.488Z,2.63
2024-05-09T09:17:59.221Z,2.53
2024-05-09T09:19:05.245Z,2.97
2024-05-09T09:20:14.212Z,2.90
2024-05-09T09:21:19.613Z,3.05
2024-05-09T09:22:22.509Z,2.92
2024-05-09T09:23:30.356Z,3.03
2024-05-09T09:24:33.537Z,2.88
2024-05-09T09:25:39.788Z,2.70
2024-05-09T09:26:47.728Z,2.60
2024-05-09T09:27:50.723Z,2.55
2024-05-09T09:28:53.862Z,2.78
2024-05-09T09:29:57.324Z,2.70
2024-05-09T09:31:04.099Z,2.42
2024-05-09T09:32:11.246Z,2.30
2024-05-09T09:33:14.405Z,2.45
2024-05-09T09:34:18.372Z,2.53
2024-05-09T09:35:21.458Z,2.55
2024-05-09T09:36:29.561Z,2.40
2024-05-09T09:37:32.986Z,2.70
2024-05-09T09:38:37.870Z,2.75
2024-05-09T09:39:42.208Z,2.55
2024-05-09T09:40:49.713Z,2.60
2024-05-09T09:41:55.013Z,2.25
2024-05-09T09:42:58.491Z,2.60
2024-05-09T09:44:02.779Z,2.75
2024-05-09T09:45:06.762Z,2.92
2024-05-09T09:46:12.593Z,2.95
2024-05-09T09:47:19.195Z,2.88
2024-05-09T09:48:23.214Z,2.83
2024-05-09T09:49:27.637Z,2.58
2024-05-09T09:50:34.491Z,3.00
2024-05-09T09:51:43.592Z,2.80
2024-05-09T09:52:47.881Z,2.80
2024-05-09T09:53:53.319Z,2.63
2024-05-09T09:54:57.875Z,2.33
2024-05-09T09:56:02.620Z,2.80
2024-05-09T09:57:07.669Z,3.53
2024-05-09T09:58:13.912Z,3.03
2024-05-09T09:59:17.599Z,2.60
2024-05-09T10:00:27.258Z,2.58
2024-05-09T10:01:36.453Z,3.03
2024-05-09T10:02:40.613Z,3.15
2024-05-09T10:03:48.316Z,3.17
2024-05-09T10:04:51.697Z,4.10
2024-05-09T10:05:55.428Z,3.60
2024-05-09T10:07:05.009Z,2.67
2024-05-09T10:08:13.225Z,2.85
2024-05-09T10:09:18.215Z,3.30
2024-05-09T10:10:32.171Z,3.25
2024-05-09T10:11:45.022Z,2.45
2024-05-09T10:13:04.652Z,2.40
2024-05-09T10:14:07.960Z,2.45
2024-05-09T10:15:11.335Z,2.72
2024-05-09T10:16:23.095Z,3.10
2024-05-09T10:17:26.186Z,2.70
2024-05-09T10:18:37.439Z,2.50
2024-05-09T10:19:40.614Z,2.83
2024-05-09T10:20:49.271Z,3.72
2024-05-09T10:21:52.513Z,2.90
2024-05-09T10:22:56.503Z,2.72
2024-05-09T10:24:02.474Z,2.40
2024-05-09T10:25:07.946Z,2.67
2024-05-09T10:26:11.012Z,3.33
2024-05-09T10:27:13.971Z,2.30
2024-05-09T10:28:17.372Z,2.20
2024-05-09T10:29:20.963Z,2.25
2024-05-09T10:31:30.409Z,2.80
2024-05-09T10:32:41.314Z,2.22
2024-05-09T10:33:52.430Z,2.95
2024-05-09T10:35:06.455Z,2.45
2024-05-09T10:36:19.078Z,2.33
2024-05-09T10:37:22.554Z,2.60
2024-05-09T10:38:25.625Z,2.40
2024-05-09T10:39:39.002Z,2.50
2024-05-09T10:40:43.018Z,2.60
2024-05-09T10:41:46.099Z,3.00
2024-05-09T10:42:52.035Z,2.38
2024-05-09T10:43:55.317Z,2.47
2024-05-09T10:44:59.931Z,2.30
2024-05-09T10:46:03.010Z,2.50
2024-05-09T10:47:06.127Z,2.50
2024-05-09T10:48:09.489Z,2.17
2024-05-09T10:49:15.514Z,2.13
2024-05-09T10:50:25.535Z,2.40
2024-05-09T10:51:31.916Z,2.50
2024-05-09T10:52:35.107Z,2.65
2024-05-09T10:53:45.386Z,2.30
2024-05-09T10:54:54.862Z,2.55
2024-05-09T10:56:00.183Z,3.50
2024-05-09T10:57:03.455Z,2.88
2024-05-09T10:58:17.448Z,2.63
2024-05-09T10:59:20.459Z,2.60
2024-05-09T11:00:30.250Z,2.40
2024-05-09T11:01:37.413Z,2.90
2024-05-09T11:02:40.561Z,2.70
2024-05-09T11:03:52.518Z,2.47
2024-05-09T11:04:58.047Z,2.70
2024-05-09T11:06:01.631Z,2.60
2024-05-09T11:07:12.676Z,2.40
2024-05-09T11:08:16.523Z,2.45
2024-05-09T11:09:19.808Z,2.47
2024-05-09T11:10:27.829Z,2.80
2024-05-09T11:11:36.935Z,2.28
2024-05-09T11:12:39.919Z,2.40
2024-05-09T11:13:42.838Z,2.40
2024-05-09T11:14:55.337Z,2.25
2024-05-09T11:17:05.631Z,2.40
2024-05-09T11:18:09.101Z,2.25
2024-05-09T11:19:14.132Z,2.80
2024-05-09T11:20:23.250Z,2.20
2024-05-09T11:21:32.493Z,2.20
2024-05-09T11:22:35.457Z,2.53
2024-05-09T11:23:38.588Z,2.60
2024-05-09T11:24:41.666Z,2.30
2024-05-09T11:26:15.374Z,2.50
2024-05-09T11:27:21.283Z,2.30
2024-05-09T11:28:24.530Z,2.10
2024-05-09T11:29:44.812Z,2.80
2024-05-09T11:30:48.958Z,2.35
2024-05-09T11:31:52.080Z,7.20
2024-05-09T11:32:55.593Z,2.58
2024-05-09T11:34:00.786Z,2.42
2024-05-09T11:35:03.744Z,2.40
2024-05-09T11:36:07.732Z,2.40
2024-05-09T11:37:11.236Z,2.20
2024-05-09T11:38:14.452Z,2.03
2024-05-09T11:39:17.639Z,2.05
2024-05-09T11:40:25.605Z,2.22
2024-05-09T11:41:35.968Z,2.55
2024-05-09T11:42:39.587Z,2.13
2024-05-09T11:43:45.478Z,2.15
2024-05-09T11:44:48.477Z,2.50
2024-05-09T11:45:51.640Z,2.10
2024-05-09T11:46:58.911Z,2.10
2024-05-09T11:48:02.022Z,2.55
2024-05-09T11:49:05.371Z,2.17
2024-05-09T11:50:13.107Z,2.22
2024-05-09T11:51:22.310Z,2.05
2024-05-09T11:52:27.821Z,2.28
2024-05-09T11:53:30.766Z,2.47
2024-05-09T11:54:34.009Z,2.30
2024-05-09T11:55:38.140Z,2.35
2024-05-09T11:56:41.192Z,2.22
2024-05-09T11:57:44.131Z,2.20
2024-05-09T11:58:47.268Z,2.20
2024-05-09T11:59:50.360Z,2.60
2024-05-09T12:00:53.487Z,2.38
2024-05-09T12:02:02.579Z,2.20
2024-05-09T12:03:06.268Z,2.38
2024-05-09T12:04:09.891Z,3.00
2024-05-09T12:05:13.690Z,2.47
2024-05-09T12:06:17.002Z,2.65
2024-05-09T12:07:21.128Z,2.35
2024-05-09T12:08:24.176Z,2.08
2024-05-09T12:09:30.158Z,1.98
2024-05-09T12:10:35.529Z,3.10
2024-05-09T12:11:39.805Z,2.55
2024-05-09T12:12:43.072Z,2.40
2024-05-09T12:13:45.984Z,2.83
2024-05-09T12:14:48.964Z,2.55
2024-05-09T12:15:51.996Z,2.15
2024-05-09T12:16:54.998Z,2.15
2024-05-09T12:18:00.227Z,2.42
2024-05-09T12:19:05.872Z,2.47
2024-05-09T12:20:14.262Z,2.40
2024-05-09T12:21:26.416Z,2.33
2024-05-09T12:22:29.387Z,2.40
2024-05-09T12:23:32.334Z,2.58
2024-05-09T12:24:35.309Z,2.42
2024-05-09T12:25:39.911Z,2.45
2024-05-09T12:26:45.935Z,2.70
2024-05-09T12:27:48.967Z,2.30
2024-05-09T12:28:52.065Z,1.95
2024-05-09T12:29:55.220Z,2.42
2024-05-09T12:30:58.331Z,2.38
2024-05-09T12:32:03.614Z,2.67
2024-05-09T12:33:08.619Z,2.50
2024-05-09T12:34:11.986Z,2.38
2024-05-09T12:35:15.100Z,2.40
2024-05-09T12:36:18.091Z,2.47
2024-05-09T12:37:21.162Z,2.47
2024-05-09T12:38:24.176Z,2.67
2024-05-09T12:39:27.057Z,2.20
2024-05-09T12:40:36.021Z,2.22
2024-05-09T12:41:41.301Z,2.33
2024-05-09T12:42:44.585Z,2.60
2024-05-09T12:43:48.899Z,2.40
2024-05-09T12:44:51.906Z,2.30
2024-05-09T12:45:55.059Z,2.30
2024-05-09T12:46:58.387Z,2.50
2024-05-09T12:48:03.385Z,2.10
2024-05-09T12:49:06.742Z,2.13
2024-05-09T12:50:18.947Z,2.53
2024-05-09T12:51:28.092Z,2.38
2024-05-09T12:52:31.118Z,2.30
2024-05-09T12:53:34.120Z,2.28
2024-05-09T12:54:37.117Z,2.33
2024-05-09T12:55:48.141Z,2.45
2024-05-09T12:56:56.831Z,2.10
2024-05-09T12:58:00.061Z,2.30
2024-05-09T12:59:03.167Z,2.20
2024-05-09T13:00:09.357Z,2.47
2024-05-09T13:01:14.610Z,2.42
2024-05-09T13:02:18.391Z,2.67
2024-05-09T13:03:22.008Z,2.78
2024-05-09T13:04:25.374Z,2.92
2024-05-09T13:05:28.822Z,2.97
2024-05-09T13:06:32.209Z,2.55
2024-05-09T13:07:36.560Z,2.40
2024-05-09T13:08:40.056Z,2.72
2024-05-09T13:09:43.110Z,2.22
2024-05-09T13:10:46.401Z,1.98
2024-05-09T13:11:49.611Z,2.60
2024-05-09T13:12:52.851Z,2.28
2024-05-09T13:13:55.822Z,2.30
2024-05-09T13:14:58.798Z,2.60
2024-05-09T13:16:01.802Z,2.33
2024-05-09T13:17:05.624Z,2.90
2024-05-09T13:18:09.832Z,2.65
2024-05-09T13:19:12.841Z,2.75
2024-05-09T13:20:25.691Z,2.63
2024-05-09T13:21:32.593Z,2.40
2024-05-09T13:22:35.816Z,2.20
2024-05-09T13:23:38.812Z,2.10
2024-05-09T13:24:42.910Z,2.45
2024-05-09T13:25:46.248Z,1.85
2024-05-09T13:26:49.192Z,2.35
2024-05-09T13:27:52.790Z,2.20
2024-05-09T13:28:55.696Z,2.83
2024-05-09T13:29:58.622Z,2.13
2024-05-09T13:31:01.629Z,2.05
2024-05-09T13:32:04.789Z,2.00
2024-05-09T13:33:08.674Z,2.45
2024-05-09T13:34:11.829Z,2.40
2024-05-09T13:35:14.922Z,2.50
2024-05-09T13:36:17.853Z,1.98
2024-05-09T13:37:20.887Z,2.20
2024-05-09T13:38:24.065Z,2.25
2024-05-09T13:39:27.022Z,2.50
2024-05-09T13:40:34.288Z,2.30
2024-05-09T13:41:39.042Z,2.13
2024-05-09T13:42:41.950Z,2.17
2024-05-09T13:43:44.891Z,2.35
2024-05-09T13:44:47.812Z,2.13
2024-05-09T13:45:50.911Z,2.47
2024-05-09T13:46:53.903Z,2.50
2024-05-09T13:47:57.236Z,2.60
2024-05-09T13:49:00.651Z,2.13
2024-05-09T13:50:06.906Z,2.60
2024-05-09T13:51:12.052Z,2.60
2024-05-09T13:52:15.156Z,2.25
2024-05-09T13:53:18.133Z,2.80
2024-05-09T13:54:22.531Z,2.40
2024-05-09T13:55:25.661Z,2.50
2024-05-09T13:56:28.624Z,2.65
2024-05-09T13:57:31.629Z,2.22
2024-05-09T13:58:34.711Z,2.17
2024-05-09T13:59:37.704Z,2.35
2024-05-09T14:00:46.441Z,2.42
2024-05-09T14:01:52.590Z,2.25
2024-05-09T14:02:55.958Z,2.10
2024-05-09T14:03:59.062Z,2.20
2024-05-09T14:05:02.421Z,1.80
2024-05-09T14:06:06.235Z,2.40
2024-05-09T14:07:10.728Z,2.42
2024-05-09T14:08:15.403Z,2.40
2024-05-09T14:09:18.708Z,2.35
2024-05-09T14:10:28.501Z,2.25
2024-05-09T14:11:33.881Z,2.20
2024-05-09T14:12:36.965Z,2.15
2024-05-09T14:13:39.835Z,2.30
2024-05-09T14:14:42.742Z,1.98
2024-05-09T14:15:46.664Z,2.10
2024-05-09T14:16:50.023Z,2.42
2024-05-09T14:17:53.257Z,2.45
2024-05-09T14:18:56.320Z,1.85
2024-05-09T14:19:59.367Z,2.28
2024-05-09T14:21:02.466Z,2.38
2024-05-09T14:22:06.780Z,1.98
2024-05-09T14:23:10.066Z,2.33
2024-05-09T14:24:16.276Z,2.17
2024-05-09T14:25:19.725Z,2.17
2024-05-09T14:26:23.488Z,2.20
2024-05-09T14:27:26.625Z,2.55
2024-05-09T14:28:29.703Z,2.00
2024-05-09T14:29:35.261Z,2.20
2024-05-09T14:30:39.175Z,2.05